Time;durP1;ratioP1;P1;durP2;ratioP2;P2;SDS_P1;SDS_P2;PMS_P1;PMS_P2;Temp;Humidity;BMP_temperature;BMP_pressure;BME280_temperature;BME280_humidity;BME280_pressure;Samples;Min_cycle;Max_cycle;Signal;HPM_P1;HPM_P2
2021/10/16 00:01:39;;;;;;;12.27;4.00;;;;;;;7.30;83.62;100962.56;1700076;83;20949;-75
2021/10/16 00:04:05;;;;;;;14.33;3.60;;;;;;;7.27;83.65;100962.59;1703817;83;21353;-75
2021/10/16 00:06:34;;;;;;;7.95;3.72;;;;;;;7.26;83.68;100964.73;1713038;83;21821;-75
2021/10/16 00:09:00;;;;;;;12.53;3.73;;;;;;;7.25;83.69;100964.30;1705253;82;20964;-75
2021/10/16 00:11:27;;;;;;;13.38;4.40;;;;;;;7.24;83.70;100963.00;1701352;83;21068;-75
2021/10/16 00:13:52;;;;;;;11.22;3.45;;;;;;;7.23;83.70;100970.29;1722133;83;21114;-75
2021/10/16 00:16:18;;;;;;;13.87;4.00;;;;;;;7.22;83.71;100969.42;1713956;82;20901;-75
2021/10/16 00:18:44;;;;;;;12.68;4.10;;;;;;;7.22;83.76;100970.71;1708190;83;21008;-75
2021/10/16 00:21:10;;;;;;;13.77;3.30;;;;;;;7.19;83.73;100967.27;1707961;83;20984;-75
2021/10/16 00:23:37;;;;;;;12.77;3.53;;;;;;;7.18;83.74;100977.13;1720543;83;21087;-75
2021/10/16 00:26:03;;;;;;;7.17;3.33;;;;;;;7.17;83.76;100976.70;1701630;83;21071;-75
2021/10/16 00:28:29;;;;;;;9.53;3.37;;;;;;;7.16;83.76;100983.98;1664766;85;21107;-74
2021/10/16 00:30:56;;;;;;;16.90;3.42;;;;;;;7.15;83.83;100977.97;1707379;83;21052;-74
2021/10/16 00:33:21;;;;;;;7.78;3.00;;;;;;;7.13;83.78;100976.25;1698702;82;21064;-75
2021/10/16 00:35:47;;;;;;;11.57;3.83;;;;;;;7.10;83.74;100980.95;1702289;83;20881;-75
2021/10/16 00:38:14;;;;;;;17.32;3.98;;;;;;;7.09;83.82;100980.52;1709548;83;21068;-74
2021/10/16 00:40:40;;;;;;;9.00;3.40;;;;;;;7.07;83.85;100982.23;1707157;82;21064;-74
2021/10/16 00:43:06;;;;;;;5.72;2.70;;;;;;;7.08;83.86;100981.80;1715066;83;21096;-74
2021/10/16 00:45:32;;;;;;;12.10;3.58;;;;;;;7.08;83.87;100989.52;1700883;83;21096;-74
2021/10/16 00:47:58;;;;;;;9.18;3.50;;;;;;;7.05;83.82;100988.22;1713523;82;21094;-74
2021/10/16 00:50:25;;;;;;;11.50;3.55;;;;;;;7.04;83.89;100991.64;1712082;83;21044;-74
2021/10/16 00:52:51;;;;;;;14.55;3.77;;;;;;;7.03;83.86;100986.92;1715593;83;20976;-74
2021/10/16 00:55:20;;;;;;;11.48;3.42;;;;;;;7.00;83.87;100988.20;1714875;83;20897;-74
2021/10/16 00:57:47;;;;;;;9.75;3.62;;;;;;;6.98;83.87;100992.04;1716619;83;20913;-75
2021/10/16 01:00:14;;;;;;;10.68;3.20;;;;;;;6.96;83.89;100995.03;1707483;81;20965;-75
2021/10/16 01:02:41;;;;;;;12.20;3.75;;;;;;;6.96;83.90;100998.03;1679681;83;20925;-75
2021/10/16 01:05:09;;;;;;;12.20;3.80;;;;;;;6.94;83.93;101004.45;1714565;83;21409;-75
2021/10/16 01:07:39;;;;;;;13.05;3.45;;;;;;;6.91;83.89;100995.86;1716394;83;21816;-75
2021/10/16 01:10:09;;;;;;;8.50;3.58;;;;;;;6.89;83.89;100997.56;1708158;83;20921;-75
2021/10/16 01:12:38;;;;;;;13.45;3.05;;;;;;;6.86;83.89;101002.69;1720932;83;20894;-75
2021/10/16 01:15:12;;;;;;;9.08;3.80;;;;;;;6.85;83.95;101005.69;1719478;81;20925;-75
2021/10/16 01:17:40;;;;;;;12.00;3.75;;;;;;;6.83;83.95;101006.09;1707605;81;20994;-75
2021/10/16 01:20:12;;;;;;;9.95;3.60;;;;;;;6.82;83.99;101011.23;1713279;83;21071;-75
2021/10/16 01:22:41;;;;;;;11.55;3.40;;;;;;;6.81;83.95;101005.66;1705002;83;21083;-75
2021/10/16 01:25:12;;;;;;;14.60;3.98;;;;;;;6.79;84.01;101008.64;1711274;83;21125;-75
2021/10/16 01:27:39;;;;;;;12.47;3.37;;;;;;;6.77;83.98;101003.49;1707432;83;21039;-75
2021/10/16 01:30:09;;;;;;;12.70;3.95;;;;;;;6.75;84.07;101003.08;1717597;83;21051;-75
2021/10/16 01:32:38;;;;;;;13.30;4.15;;;;;;;6.74;84.06;101007.36;1699894;82;21108;-75
2021/10/16 01:35:07;;;;;;;10.48;3.27;;;;;;;6.75;84.04;101006.94;1707184;82;21039;-75
2021/10/16 01:37:35;;;;;;;10.93;3.85;;;;;;;6.73;84.02;101009.50;1707758;83;20965;-75
2021/10/16 01:40:01;;;;;;;10.32;3.00;;;;;;;6.72;84.07;101002.64;1711741;83;21454;-75
2021/10/16 01:42:27;;;;;;;12.55;3.70;;;;;;;6.71;84.04;101003.91;1705965;83;21071;-75
2021/10/16 01:44:53;;;;;;;9.85;3.40;;;;;;;6.69;84.08;101012.90;1709625;83;21004;-75
2021/10/16 01:47:19;;;;;;;11.90;3.70;;;;;;;6.67;84.08;101018.45;1709008;83;21087;-75
2021/10/16 01:49:58;;;;;;;10.78;3.17;;;;;;;6.66;84.12;101014.59;1707829;83;20984;-75
2021/10/16 01:52:24;;;;;;;9.23;3.20;;;;;;;6.64;84.10;101019.72;1709739;83;21104;-75
2021/10/16 01:54:49;;;;;;;9.43;3.55;;;;;;;6.63;84.13;101017.57;1686183;83;21067;-75
2021/10/16 01:57:16;;;;;;;;;;;;;;;6.62;84.12;101019.70;1707369;83;21036;-75
2021/10/16 01:59:42;;;;;;;8.98;2.95;;;;;;;6.61;84.18;101020.98;1714251;83;20759;-75
2021/10/16 02:02:08;;;;;;;14.25;3.35;;;;;;;6.57;84.11;101023.95;1693982;83;21001;-75
2021/10/16 02:04:34;;;;;;;12.43;3.30;;;;;;;6.54;84.06;101023.94;1679284;84;21381;-75
2021/10/16 02:07:00;;;;;;;11.40;3.30;;;;;;;6.52;84.12;101024.34;1698065;83;21595;-75
2021/10/16 02:09:27;;;;;;;11.05;3.10;;;;;;;6.50;84.13;101023.47;1678971;84;21492;-75
2021/10/16 02:11:52;;;;;;;7.90;3.00;;;;;;;6.48;84.15;101023.89;1696266;83;20911;-75
2021/10/16 02:14:18;;;;;;;14.90;3.20;;;;;;;6.47;84.16;101019.59;1711641;83;21813;-75
2021/10/16 02:16:45;;;;;;;;;;;;;;;6.46;84.13;101025.59;1701626;83;21033;-75
2021/10/16 02:19:11;;;;;;;11.83;2.83;;;;;;;6.44;84.23;101024.72;1694630;83;20178;-75
2021/10/16 02:21:37;;;;;;;12.70;2.80;;;;;;;6.41;84.18;101025.11;1701502;83;21001;-75
2021/10/16 02:24:04;;;;;;;10.72;3.35;;;;;;;6.39;84.22;101028.95;1702143;83;22680;-75
2021/10/16 02:26:30;;;;;;;9.35;2.83;;;;;;;6.38;84.18;101028.52;1699550;83;21485;-75
2021/10/16 02:28:56;;;;;;;10.93;2.80;;;;;;;6.36;84.19;101038.34;1704493;83;21024;-75
2021/10/16 02:31:23;;;;;;;6.60;2.90;;;;;;;6.33;84.16;101037.89;1684940;84;20902;-75
2021/10/16 02:33:49;;;;;;;9.40;2.75;;;;;;;6.29;84.13;101044.71;1696190;84;21687;-75
2021/10/16 02:36:16;;;;;;;10.53;3.00;;;;;;;6.27;84.21;101051.97;1703845;83;21466;-75
2021/10/16 02:38:42;;;;;;;8.75;2.75;;;;;;;6.24;84.21;101046.38;1705459;83;21013;-75
2021/10/16 02:41:08;;;;;;;10.63;3.60;;;;;;;6.24;84.22;101050.66;1699088;83;20926;-75
2021/10/16 02:43:34;;;;;;;15.20;3.37;;;;;;;6.21;84.18;101050.66;1680893;84;21058;-75
2021/10/16 02:46:00;;;;;;;10.73;3.20;;;;;;;6.19;84.24;101054.92;1682319;84;22018;-75
2021/10/16 02:48:26;;;;;;;13.23;3.43;;;;;;;6.17;84.23;101049.77;1689808;84;20905;-75
2021/10/16 02:50:52;;;;;;;6.08;2.80;;;;;;;6.14;84.18;101054.88;1682594;83;21474;-75
2021/10/16 02:53:18;;;;;;;13.27;3.27;;;;;;;6.12;84.25;101054.43;1700520;84;21005;-75
2021/10/16 02:55:44;;;;;;;17.33;3.43;;;;;;;6.11;84.32;101051.00;1569998;83;10000282;-75
2021/10/16 02:58:10;;;;;;;10.10;2.90;;;;;;;6.12;84.28;101057.00;1690258;83;146557;-75
2021/10/16 03:00:36;;;;;;;8.57;2.87;;;;;;;6.10;84.30;101053.55;1683064;84;20976;-75
2021/10/16 03:03:09;;;;;;;14.05;2.65;;;;;;;6.09;84.33;101043.70;1656585;84;22102;-75
2021/10/16 03:05:35;;;;;;;13.33;3.13;;;;;;;6.09;84.33;101053.12;1673911;84;21686;-75
2021/10/16 03:08:01;;;;;;;15.32;3.15;;;;;;;6.08;84.32;101048.41;1681103;84;21504;-75
2021/10/16 03:10:27;;;;;;;12.27;3.67;;;;;;;6.06;84.35;101053.95;1682038;83;20958;-75
2021/10/16 03:12:53;;;;;;;8.47;2.90;;;;;;;6.07;84.37;101048.39;1682862;84;21651;-75
2021/10/16 03:15:28;;;;;;;10.93;2.85;;;;;;;6.05;84.36;101054.80;1657883;84;21498;-75
2021/10/16 03:17:54;;;;;;;15.20;3.10;;;;;;;6.03;84.33;101057.77;1692972;83;21426;-75
2021/10/16 03:20:20;;;;;;;9.00;3.07;;;;;;;6.02;84.35;101062.89;1674018;84;21002;-75
2021/10/16 03:22:46;;;;;;;16.95;4.42;;;;;;;6.02;84.42;101062.47;1687143;84;21072;-75
2021/10/16 03:25:12;;;;;;;11.27;3.30;;;;;;;6.00;84.38;101061.59;1683323;83;20914;-75
2021/10/16 03:27:38;;;;;;;10.82;3.05;;;;;;;5.99;84.41;101066.28;1687830;84;21084;-75
2021/10/16 03:30:05;;;;;;;7.83;3.37;;;;;;;5.96;84.31;101070.11;1674031;84;21462;-75
2021/10/16 03:32:31;;;;;;;11.80;2.80;;;;;;;5.94;84.36;101073.94;1668143;84;21105;-75
2021/10/16 03:34:57;;;;;;;10.57;3.23;;;;;;;5.93;84.38;101072.64;1682540;84;21600;-75
2021/10/16 03:37:24;;;;;;;13.72;3.02;;;;;;;5.93;84.45;101078.63;1691371;84;21025;-75
2021/10/16 03:39:50;;;;;;;13.57;3.50;;;;;;;5.93;84.45;101079.05;1684609;84;22660;-75
2021/10/16 03:42:24;;;;;;;9.85;3.67;;;;;;;5.92;84.40;101078.62;1674273;84;21490;-75
2021/10/16 03:44:49;;;;;;;13.03;3.93;;;;;;;5.90;84.45;101076.03;1694420;84;21187;-75
2021/10/16 03:47:15;;;;;;;10.80;3.73;;;;;;;5.88;84.42;101080.26;1688310;83;21305;-75
2021/10/16 03:49:41;;;;;;;12.50;3.23;;;;;;;5.88;84.45;101084.53;1690874;83;21152;-75
2021/10/16 03:52:07;;;;;;;14.10;4.12;;;;;;;5.86;84.47;101081.08;1670317;84;21563;-75
2021/10/16 03:54:33;;;;;;;5.37;2.90;;;;;;;5.85;84.48;101087.92;1649695;85;21068;-75
2021/10/16 03:56:59;;;;;;;12.77;3.07;;;;;;;5.83;84.44;101085.77;1656302;86;21732;-75
2021/10/16 03:59:25;;;;;;;13.90;3.70;;;;;;;5.82;84.55;101088.31;1651113;86;21029;-75
2021/10/16 04:01:51;;;;;;;13.15;2.85;;;;;;;5.80;84.44;101093.84;1640057;86;21432;-75
2021/10/16 04:04:17;;;;;;;12.67;3.10;;;;;;;5.77;84.43;101098.52;1657064;86;21507;-75
2021/10/16 04:06:43;;;;;;;10.13;3.00;;;;;;;5.77;84.46;101101.09;1655395;86;21548;-75
2021/10/16 04:09:22;;;;;;;11.28;3.27;;;;;;;5.75;84.48;101102.78;1704654;83;21474;-75
2021/10/16 04:11:48;;;;;;;7.23;2.60;;;;;;;5.74;84.50;101103.62;1695615;83;21430;-75
2021/10/16 04:14:14;;;;;;;13.97;3.10;;;;;;;5.72;84.50;101110.44;1692301;83;20962;-75
2021/10/16 04:16:42;;;;;;;9.60;3.05;;;;;;;5.71;84.51;101119.43;1685852;83;21469;-75
2021/10/16 04:19:08;;;;;;;11.45;2.98;;;;;;;5.66;84.37;101116.81;1704488;83;25487;-75
2021/10/16 04:21:34;;;;;;;7.17;3.30;;;;;;;5.63;84.48;101122.77;1698426;83;21683;-75
2021/10/16 04:24:00;;;;;;;14.90;2.90;;;;;;;5.63;84.56;101123.19;1706044;83;21797;-75
2021/10/16 04:26:27;;;;;;;10.93;2.90;;;;;;;5.64;84.54;101123.62;1704514;83;21596;-75
2021/10/16 04:28:53;;;;;;;12.45;3.30;;;;;;;5.61;84.53;101119.74;1689374;83;21511;-75
2021/10/16 04:31:19;;;;;;;12.83;3.87;;;;;;;5.60;84.54;101121.87;1709675;83;20889;-75
2021/10/16 04:33:46;;;;;;;7.50;3.60;;;;;;;5.59;84.52;101122.28;1698634;82;21730;-75
2021/10/16 04:36:16;;;;;;;8.63;3.47;;;;;;;5.56;84.48;101123.95;1687943;83;20953;-75
2021/10/16 04:38:47;;;;;;;12.03;3.27;;;;;;;5.53;84.46;101127.34;1701598;83;21411;-75
2021/10/16 04:41:13;;;;;;;13.93;3.50;;;;;;;5.52;84.53;101125.62;1695051;83;20902;-75
2021/10/16 04:43:41;;;;;;;11.20;3.65;;;;;;;5.50;84.50;101123.88;1706144;83;20925;-75
2021/10/16 04:46:09;;;;;;;9.80;3.95;;;;;;;5.46;84.47;101129.80;1696879;83;20937;-75
2021/10/16 04:48:42;;;;;;;14.63;5.58;;;;;;;5.44;84.51;101125.08;1694607;83;21517;-75
2021/10/16 04:51:10;;;;;;;16.32;6.30;;;;;;;5.42;84.50;101126.34;1704780;83;20917;-75
2021/10/16 04:53:36;;;;;;;12.68;5.17;;;;;;;5.41;84.56;101122.05;1697396;83;22217;-75
2021/10/16 04:56:08;;;;;;;23.35;7.03;;;;;;;5.40;84.58;101123.31;1736952;81;21318;-75
2021/10/16 04:58:34;;;;;;;14.17;6.70;;;;;;;5.39;84.55;101123.73;1728366;81;20919;-75
2021/10/16 05:01:00;;;;;;;12.73;5.23;;;;;;;5.37;84.55;101120.28;1731261;81;20910;-75
2021/10/16 05:03:26;;;;;;;12.90;5.83;;;;;;;5.34;84.53;101124.09;1720702;81;21112;-75
2021/10/16 05:05:55;;;;;;;18.40;5.50;;;;;;;5.33;84.59;101119.38;1712758;83;20897;-75
2021/10/16 05:08:40;;;;;;;20.10;5.20;;;;;;;5.31;84.57;101122.34;1700912;83;21063;-75
2021/10/16 05:11:06;;;;;;;12.37;5.22;;;;;;;5.30;84.63;101127.03;1689270;83;21616;-75
2021/10/16 05:13:32;;;;;;;10.50;4.23;;;;;;;5.31;84.64;101128.76;1694808;83;20943;-75
2021/10/16 05:15:59;;;;;;;13.40;4.47;;;;;;;5.31;84.67;101129.17;1690204;83;21090;-75
2021/10/16 05:18:26;;;;;;;20.68;5.08;;;;;;;5.32;84.70;101133.05;1656166;85;21554;-75
2021/10/16 05:20:53;;;;;;;13.45;4.97;;;;;;;5.33;84.68;101130.92;1659736;85;21041;-75
2021/10/16 05:23:19;;;;;;;14.50;5.03;;;;;;;5.33;84.74;101136.05;1686146;83;20926;-75
2021/10/16 05:25:46;;;;;;;13.85;5.03;;;;;;;5.35;84.78;101141.20;1685338;83;20982;-75
2021/10/16 05:28:13;;;;;;;27.42;7.00;;;;;;;5.38;84.79;101139.09;1696229;83;20887;-75
2021/10/16 05:30:40;;;;;;;23.75;5.78;;;;;;;5.39;84.82;101140.40;1687670;83;20879;-75
2021/10/16 05:33:06;;;;;;;15.30;5.58;;;;;;;5.43;84.83;101142.59;1704094;83;20929;-75
2021/10/16 05:35:32;;;;;;;14.73;5.37;;;;;;;5.45;84.81;101147.31;1664192;84;20895;-75
2021/10/16 05:37:58;;;;;;;15.53;5.00;;;;;;;5.46;84.83;101148.63;1674754;85;20974;-75
2021/10/16 05:40:24;;;;;;;20.02;4.60;;;;;;;5.49;84.85;101154.21;1665513;85;20863;-75
2021/10/16 05:42:53;;;;;;;12.58;4.33;;;;;;;5.52;84.86;101157.68;1685083;83;20898;-75
2021/10/16 05:45:19;;;;;;;12.18;4.40;;;;;;;5.55;84.87;101155.16;1670096;84;20989;-75
2021/10/16 05:47:45;;;;;;;16.62;4.72;;;;;;;5.57;84.84;101163.73;1686124;83;20921;-75
2021/10/16 05:50:11;;;;;;;12.28;4.45;;;;;;;5.59;84.83;101169.75;1671979;83;21007;-75
2021/10/16 05:52:38;;;;;;;12.27;4.60;;;;;;;5.62;84.89;101180.47;1668740;83;20877;-75
2021/10/16 05:55:14;;;;;;;8.88;4.28;;;;;;;5.64;84.85;101186.06;1685915;83;21040;-75
2021/10/16 05:57:40;;;;;;;17.07;5.15;;;;;;;5.68;84.87;101191.23;1690194;83;21054;-75
2021/10/16 06:00:07;;;;;;;14.80;5.10;;;;;;;5.70;84.88;101194.27;1720960;81;21090;-75
2021/10/16 06:02:34;;;;;;;17.55;5.50;;;;;;;5.73;84.90;101196.83;1699148;82;21056;-75
2021/10/16 06:05:00;;;;;;;16.67;5.22;;;;;;;5.77;84.95;101202.45;1724201;81;21073;-73
2021/10/16 06:07:26;;;;;;;13.25;5.67;;;;;;;5.83;84.94;101201.66;1724722;81;21069;-73
2021/10/16 06:09:52;;;;;;;20.95;6.12;;;;;;;5.86;84.93;101205.13;1730465;81;21115;-73
2021/10/16 06:12:18;;;;;;;16.87;6.20;;;;;;;5.89;84.96;101209.48;1714564;81;21433;-74
2021/10/16 06:14:44;;;;;;;22.98;7.37;;;;;;;5.92;84.96;101207.81;1722993;81;21291;-74
2021/10/16 06:17:10;;;;;;;20.82;6.58;;;;;;;5.98;84.97;101218.16;1692132;83;21044;-71
2021/10/16 06:19:36;;;;;;;18.10;6.27;;;;;;;6.03;84.95;101222.48;1730461;81;21655;-69
2021/10/16 06:22:03;;;;;;;12.40;5.85;;;;;;;6.06;84.95;101227.23;1721304;81;22116;-76
2021/10/16 06:24:29;;;;;;;14.68;5.22;;;;;;;6.09;84.99;101221.28;1695934;82;141519;-76
2021/10/16 06:26:55;;;;;;;17.65;5.35;;;;;;;6.16;85.04;101227.78;1715205;81;21219;-74
2021/10/16 06:29:23;;;;;;;19.07;7.85;;;;;;;6.21;85.01;101231.27;1706715;82;21100;-76
2021/10/16 06:31:49;;;;;;;18.10;7.72;;;;;;;6.27;84.98;101240.30;1706163;82;21059;-77
2021/10/16 06:34:15;;;;;;;24.93;9.03;;;;;;;6.30;84.98;101243.33;1716537;83;21533;-76
2021/10/16 06:36:41;;;;;;;23.93;8.10;;;;;;;6.36;84.99;101241.25;1717684;82;21006;-76
2021/10/16 06:39:07;;;;;;;18.65;7.90;;;;;;;6.41;85.02;101248.59;1702123;83;21002;-76
2021/10/16 06:41:33;;;;;;;17.03;7.73;;;;;;;6.41;84.96;101244.31;1704856;83;21047;-76
2021/10/16 06:43:59;;;;;;;27.67;9.43;;;;;;;6.47;84.97;101253.37;1707671;82;23237;-76
2021/10/16 06:46:31;;;;;;;20.25;9.03;;;;;;;6.51;84.96;101250.41;1713195;83;21046;-76
2021/10/16 06:48:57;;;;;;;25.70;10.70;;;;;;;6.61;85.05;101247.95;1696742;83;21034;-76
2021/10/16 06:51:23;;;;;;;24.45;10.35;;;;;;;6.67;85.03;101252.30;1699013;83;21086;-76
2021/10/16 06:53:49;;;;;;;25.48;10.63;;;;;;;6.72;85.02;101252.34;1710805;81;21128;-76
2021/10/16 06:56:15;;;;;;;24.10;9.43;;;;;;;6.79;85.02;101260.09;1721509;82;20911;-76
2021/10/16 06:58:41;;;;;;;31.60;12.53;;;;;;;6.86;85.05;101267.45;1710335;83;22372;-76
2021/10/16 07:01:07;;;;;;;32.50;12.33;;;;;;;6.91;85.00;101269.64;1712133;82;21022;-75
2021/10/16 07:03:33;;;;;;;34.18;12.23;;;;;;;6.96;84.99;101268.84;1703632;82;21583;-75
2021/10/16 07:06:01;;;;;;;33.70;12.82;;;;;;;7.03;85.02;101264.61;1702687;83;21045;-75
2021/10/16 07:08:31;;;;;;;30.00;10.87;;;;;;;7.10;85.01;101269.38;1705931;83;20939;-75
2021/10/16 07:10:58;;;;;;;30.20;9.45;;;;;;;7.15;85.00;101271.15;1708174;83;21737;-75
2021/10/16 07:13:24;;;;;;;;;;;;;;;7.24;85.04;101271.66;1712915;82;21058;-75
2021/10/16 07:15:51;;;;;;;19.35;5.90;;;;;;;7.33;84.97;101273.41;1718031;83;20182;-75
2021/10/16 07:18:17;;;;;;;20.08;7.28;;;;;;;7.36;84.90;101274.72;1718537;82;21047;-75
2021/10/16 07:20:44;;;;;;;24.90;8.10;;;;;;;7.42;84.96;101280.77;1707239;82;21108;-75
2021/10/16 07:23:10;;;;;;;17.40;5.93;;;;;;;7.53;85.04;101280.84;1714643;82;21113;-75
2021/10/16 07:25:36;;;;;;;17.43;6.07;;;;;;;7.64;84.96;101284.36;1718909;82;21041;-75
2021/10/16 07:28:03;;;;;;;11.60;4.30;;;;;;;7.78;85.02;101283.17;1716878;83;21081;-75
2021/10/16 07:30:29;;;;;;;15.63;4.75;;;;;;;7.87;84.94;101287.91;1712979;82;20955;-75
2021/10/16 07:32:55;;;;;;;14.73;5.50;;;;;;;7.98;84.90;101281.11;1716491;82;21596;-75
2021/10/16 07:35:27;;;;;;;16.65;4.90;;;;;;;8.11;84.86;101282.46;1708437;83;21114;-75
2021/10/16 07:37:53;;;;;;;15.53;5.53;;;;;;;8.23;84.89;101285.95;1717623;82;20973;-75
2021/10/16 07:40:19;;;;;;;14.20;4.77;;;;;;;8.35;84.95;101287.73;1714388;82;21110;-76
2021/10/16 07:42:45;;;;;;;21.80;5.33;;;;;;;8.54;84.84;101287.37;1712058;82;21104;-76
2021/10/16 07:45:11;;;;;;;10.10;3.63;;;;;;;8.74;84.81;101290.86;1702392;83;20955;-72
2021/10/16 07:47:37;;;;;;;11.73;3.87;;;;;;;8.93;84.70;101288.72;1703743;83;20965;-74
2021/10/16 07:50:05;;;;;;;13.13;3.40;;;;;;;9.12;84.68;101296.06;1703551;83;21735;-74
2021/10/16 07:52:32;;;;;;;8.43;3.27;;;;;;;9.33;84.74;101285.32;1717866;83;21419;-73
2021/10/16 07:55:07;;;;;;;11.00;3.30;;;;;;;9.42;84.88;101299.48;1704523;83;21086;-73
2021/10/16 07:57:33;;;;;;;15.83;5.58;;;;;;;9.54;85.03;101295.17;1696806;83;21129;-72
2021/10/16 07:59:59;;;;;;;17.97;4.80;;;;;;;9.57;84.77;101299.05;1709496;83;21106;-72
2021/10/16 08:02:26;;;;;;;9.20;4.57;;;;;;;9.59;84.92;101299.91;1712893;81;21070;-73
2021/10/16 08:04:52;;;;;;;12.30;5.13;;;;;;;9.62;84.99;101306.79;1721060;81;21755;-73
2021/10/16 08:07:18;;;;;;;10.63;3.53;;;;;;;9.59;84.91;101310.23;1711501;82;20923;-73
2021/10/16 08:09:45;;;;;;;9.00;2.85;;;;;;;9.59;84.92;101315.39;1711627;83;20908;-73
2021/10/16 08:12:11;;;;;;;15.85;4.08;;;;;;;9.55;84.93;101316.26;1714268;81;20986;-73
2021/10/16 08:14:37;;;;;;;16.33;3.13;;;;;;;9.54;84.96;101314.97;1716414;81;20896;-73
2021/10/16 08:17:03;;;;;;;7.60;2.80;;;;;;;9.48;84.87;101317.55;1714988;81;20915;-73
2021/10/16 08:19:30;;;;;;;9.13;3.83;;;;;;;9.48;84.93;101320.13;1704386;81;21022;-73
2021/10/16 08:21:56;;;;;;;11.97;3.30;;;;;;;9.48;84.96;101320.99;1719008;83;20956;-73
2021/10/16 08:24:22;;;;;;;10.90;3.60;;;;;;;9.48;84.96;101322.28;1720430;82;21811;-73
2021/10/16 08:26:48;;;;;;;10.83;4.40;;;;;;;9.51;85.01;101331.32;1720800;81;20959;-73
2021/10/16 08:29:14;;;;;;;10.63;4.00;;;;;;;9.57;84.85;101329.17;1717996;81;20896;-73
2021/10/16 08:31:40;;;;;;;10.32;3.80;;;;;;;9.57;84.85;101329.17;1716661;82;21377;-73
2021/10/16 08:34:06;;;;;;;12.73;4.80;;;;;;;9.55;84.92;101332.18;1705747;81;21541;-73
2021/10/16 08:36:33;;;;;;;;;;;;;;;9.53;84.89;101331.32;1712906;81;21062;-73
2021/10/16 08:38:59;;;;;;;15.68;5.58;;;;;;;9.53;84.79;101332.61;1703999;81;20176;-75
2021/10/16 08:41:25;;;;;;;13.47;3.90;;;;;;;9.50;84.82;101336.48;1714880;83;20939;-73
2021/10/16 08:43:52;;;;;;;13.15;4.33;;;;;;;9.48;84.79;101330.45;1716968;82;21074;-74
2021/10/16 08:46:18;;;;;;;13.43;4.50;;;;;;;9.49;84.76;101338.63;1717774;83;21145;-73
2021/10/16 08:48:45;;;;;;;14.03;4.60;;;;;;;9.50;84.77;101341.64;1692523;83;38963;-74
2021/10/16 08:51:11;;;;;;;11.07;4.43;;;;;;;9.52;84.80;101333.47;1707235;83;20920;-74
2021/10/16 08:53:39;;;;;;;19.57;6.22;;;;;;;9.52;84.73;101339.50;1716699;83;21532;-73
2021/10/16 08:56:06;;;;;;;12.55;4.28;;;;;;;9.51;84.67;101336.91;1713219;82;21317;-73
2021/10/16 08:58:38;;;;;;;11.20;4.53;;;;;;;9.49;84.63;101351.11;1695452;81;21662;-73
2021/10/16 09:01:05;;;;;;;16.57;4.17;;;;;;;9.42;84.53;101342.07;1680922;83;21722;-73
2021/10/16 09:03:40;;;;;;;10.63;3.90;;;;;;;9.35;84.51;101345.11;1665161;84;21049;-73
2021/10/16 09:06:25;;;;;;;12.10;3.80;;;;;;;9.29;84.52;101339.52;1675701;85;21121;-73
2021/10/16 09:09:05;;;;;;;15.18;4.42;;;;;;;9.25;84.55;101339.51;1658920;84;21117;-73
2021/10/16 09:11:37;;;;;;;15.75;4.05;;;;;;;9.19;84.58;101342.94;1665424;85;21069;-73
2021/10/16 09:14:10;;;;;;;14.20;5.22;;;;;;;9.18;84.62;101339.93;1679929;85;21141;-74
2021/10/16 09:16:44;;;;;;;14.53;4.47;;;;;;;9.21;84.69;101351.97;1677044;83;21085;-72
2021/10/16 09:19:27;;;;;;;22.58;5.22;;;;;;;9.24;84.66;101356.71;1679278;83;21030;-72
2021/10/16 09:22:04;;;;;;;13.80;4.22;;;;;;;9.22;84.56;101348.11;1676838;85;21120;-72
2021/10/16 09:24:38;;;;;;;12.47;4.65;;;;;;;9.25;84.59;101361.44;1659764;85;21108;-73
2021/10/16 09:27:16;;;;;;;19.20;4.28;;;;;;;9.18;84.63;101345.09;1672672;85;21065;-73
2021/10/16 09:32:15;;;;;;;14.03;5.80;;;;;;;9.36;84.51;101351.96;1830165;76;22048;-74
2021/10/16 09:34:44;;;;;;;28.00;9.10;;;;;;;9.33;84.40;101362.75;1800668;78;20953;-72
2021/10/16 09:37:16;;;;;;;15.15;5.65;;;;;;;9.37;84.47;101362.72;1806109;78;21090;-72
2021/10/16 09:39:51;;;;;;;12.37;4.45;;;;;;;9.39;84.44;101364.01;1791987;78;20961;-72
2021/10/16 09:42:31;;;;;;;8.58;3.55;;;;;;;9.43;84.38;101357.98;1798453;78;20913;-75
2021/10/16 09:45:00;;;;;;;15.35;4.53;;;;;;;9.47;84.32;101363.59;1747010;78;730691;-74
2021/10/16 09:47:26;;;;;;;15.03;4.45;;;;;;;9.50;84.34;101368.32;1741743;80;21442;-75
2021/10/16 09:50:06;;;;;;;16.25;5.67;;;;;;;9.55;84.26;101369.61;1747431;80;20961;-74
2021/10/16 09:52:35;;;;;;;16.55;6.20;;;;;;;9.57;84.28;101366.17;1752045;80;21238;-74
2021/10/16 09:55:01;;;;;;;9.80;5.67;;;;;;;9.60;84.25;101367.47;1737034;80;20910;-73
2021/10/16 09:57:29;;;;;;;14.70;4.75;;;;;;;9.65;84.31;101372.63;1732586;80;20940;-72
2021/10/16 09:59:59;;;;;;;10.53;4.05;;;;;;;9.71;84.29;101376.94;1767121;80;20877;-74
2021/10/16 10:02:32;;;;;;;13.78;4.20;;;;;;;9.77;84.27;101366.61;1755759;80;21732;-73
2021/10/16 10:04:59;;;;;;;8.48;4.17;;;;;;;9.82;84.22;101370.91;1765927;79;20929;-72
2021/10/16 10:07:26;;;;;;;15.60;6.00;;;;;;;9.86;84.16;101370.05;1736513;80;20902;-72
2021/10/16 10:09:52;;;;;;;17.82;7.97;;;;;;;9.89;84.13;101376.47;1731806;81;21052;-72
2021/10/16 10:12:20;;;;;;;18.47;5.17;;;;;;;9.92;84.10;101376.46;1694668;83;21130;-72
2021/10/16 10:14:49;;;;;;;29.35;14.40;;;;;;;9.96;84.09;101376.89;1659472;84;21395;-72
2021/10/16 10:17:29;;;;;;;31.75;17.73;;;;;;;9.98;84.06;101379.91;1687065;82;20968;-72
2021/10/16 10:20:00;;;;;;;36.53;19.17;;;;;;;9.98;83.99;101379.91;1725581;82;21046;-72
2021/10/16 10:22:34;;;;;;;25.30;12.68;;;;;;;9.98;83.96;101384.64;1724797;82;21096;-72
2021/10/16 10:25:00;;;;;;;27.62;9.70;;;;;;;9.94;83.88;101379.05;1716062;82;21106;-72
2021/10/16 10:27:28;;;;;;;16.10;6.60;;;;;;;9.93;83.90;101378.61;1721926;82;21112;-72
2021/10/16 10:29:55;;;;;;;12.63;4.83;;;;;;;9.90;83.88;101377.33;1681499;83;20966;-74
2021/10/16 10:32:25;;;;;;;13.90;6.43;;;;;;;9.90;83.92;101376.03;1723141;80;20914;-71
2021/10/16 10:34:58;;;;;;;15.38;5.72;;;;;;;9.89;83.85;101380.34;1730675;82;21074;-71
2021/10/16 10:37:41;;;;;;;13.88;4.85;;;;;;;9.84;83.83;101376.94;1715527;80;21052;-71
2021/10/16 10:40:21;;;;;;;19.25;5.15;;;;;;;9.89;83.98;101377.75;1711277;82;21111;-71
2021/10/16 10:42:57;;;;;;;20.55;4.45;;;;;;;10.01;84.04;101376.02;1746458;80;21031;-71
2021/10/16 10:45:29;;;;;;;;;;;;;;;10.10;83.94;101370.41;1754212;80;21019;-71
2021/10/16 10:47:59;;;;;;;10.13;3.85;;;;;;;10.21;83.80;101371.28;1748172;80;20493;-71
2021/10/16 10:50:45;;;;;;;14.58;4.70;;;;;;;10.30;83.90;101370.83;1720404;82;21073;-73
2021/10/16 10:53:18;;;;;;;8.18;3.25;;;;;;;10.36;83.67;101369.52;1702690;83;21097;-72
2021/10/16 10:56:01;;;;;;;11.85;4.25;;;;;;;10.39;83.59;101361.33;1751005;80;20901;-73
2021/10/16 10:58:58;;;;;;;10.90;2.92;;;;;;;10.41;83.56;101360.00;1748605;80;20933;-72
2021/10/16 11:01:58;;;;;;;9.13;2.72;;;;;;;10.44;83.50;101359.55;1742734;80;20928;-72
2021/10/16 11:04:51;;;;;;;11.03;2.33;;;;;;;10.46;83.36;101357.83;1752787;79;20896;-74
2021/10/16 11:07:34;;;;;;;8.65;2.83;;;;;;;10.47;83.37;101350.49;1749134;80;20921;-75
2021/10/16 11:10:01;;;;;;;10.05;2.77;;;;;;;10.49;83.30;101355.66;1745029;80;20873;-75
2021/10/16 11:12:37;;;;;;;10.32;2.42;;;;;;;10.50;83.13;101344.02;1758054;80;20862;-72
2021/10/16 11:15:12;;;;;;;10.32;2.60;;;;;;;10.56;83.14;101352.19;1694913;82;20938;-73
2021/10/16 11:17:44;;;;;;;6.45;2.65;;;;;;;10.59;83.13;101345.27;1712473;83;20949;-73
2021/10/16 11:20:16;;;;;;;13.95;3.30;;;;;;;10.64;83.11;101353.45;1713962;83;20878;-73
2021/10/16 11:22:52;;;;;;;10.00;3.55;;;;;;;10.70;83.07;101349.11;1627884;81;5000041;-73
2021/10/16 11:25:29;;;;;;;10.38;3.30;;;;;;;10.77;82.96;101349.94;1724678;81;20885;-73
2021/10/16 11:28:13;;;;;;;5.50;2.02;;;;;;;10.78;82.83;101341.31;1688958;82;20914;-73
2021/10/16 11:30:45;;;;;;;9.03;2.98;;;;;;;10.77;82.64;101342.17;1701728;82;20962;-73
2021/10/16 11:33:15;;;;;;;12.73;3.90;;;;;;;10.77;82.60;101337.00;1721069;82;20940;-73
2021/10/16 11:35:44;;;;;;;7.15;2.85;;;;;;;10.80;82.56;101340.44;1719089;82;21013;-73